createdAt,value
2018-12-08T00:01:40.350Z,99.90
2018-12-08T00:04:09.233Z,99.90
2018-12-08T00:06:38.191Z,99.90
2018-12-08T00:09:07.275Z,99.90
2018-12-08T00:11:37.564Z,99.90
2018-12-08T00:14:06.433Z,99.90
2018-12-08T00:16:35.371Z,99.90
2018-12-08T00:19:04.353Z,99.90
2018-12-08T00:21:33.214Z,99.90
2018-12-08T00:24:02.122Z,99.90
2018-12-08T00:26:31.051Z,99.90
2018-12-08T00:29:00.021Z,99.90
2018-12-08T00:31:43.796Z,99.90
2018-12-08T00:34:12.736Z,99.90
2018-12-08T00:36:41.848Z,99.90
2018-12-08T00:39:10.824Z,99.90
2018-12-08T00:41:39.805Z,99.90
2018-12-08T00:44:08.744Z,99.90
2018-12-08T00:46:37.650Z,99.90
2018-12-08T00:49:06.581Z,99.90
2018-12-08T00:51:35.451Z,99.90
2018-12-08T00:54:07.878Z,99.90
2018-12-08T00:59:06.512Z,99.90
2018-12-08T01:01:35.564Z,99.90
2018-12-08T01:04:04.432Z,99.90
2018-12-08T01:06:33.391Z,99.90
2018-12-08T01:09:02.403Z,99.90
2018-12-08T01:14:01.099Z,99.90
2018-12-08T01:16:30.018Z,99.90
2018-12-08T01:18:58.904Z,99.90
2018-12-08T01:23:56.378Z,99.90
2018-12-08T01:26:25.390Z,99.90
2018-12-08T01:28:54.297Z,99.90
2018-12-08T01:31:23.176Z,99.90
2018-12-08T01:33:52.109Z,99.90
2018-12-08T01:36:21.057Z,99.90
2018-12-08T01:38:50.005Z,99.90
2018-12-08T01:41:18.935Z,99.90
2018-12-08T01:43:47.857Z,99.90
2018-12-08T01:46:16.852Z,99.90
2018-12-08T01:48:45.844Z,99.90
2018-12-08T01:53:43.440Z,99.90
2018-12-08T01:56:12.362Z,99.90
2018-12-08T01:58:41.247Z,99.90
2018-12-08T02:01:10.169Z,99.90
2018-12-08T02:03:39.099Z,99.90
2018-12-08T02:06:08.076Z,99.90
2018-12-08T02:08:37.065Z,99.90
2018-12-08T02:13:36.536Z,99.90
2018-12-08T02:18:34.110Z,99.90
2018-12-08T02:21:03.046Z,99.90
2018-12-08T02:23:31.931Z,99.90
2018-12-08T02:26:00.928Z,99.90
2018-12-08T02:31:01.218Z,99.90
2018-12-08T02:33:30.160Z,99.90
2018-12-08T02:35:59.114Z,99.90
2018-12-08T02:38:28.066Z,99.90
2018-12-08T02:40:57.054Z,99.90
2018-12-08T02:43:25.958Z,99.90
2018-12-08T02:45:54.834Z,99.90
2018-12-08T02:48:23.725Z,99.90
2018-12-08T02:50:52.599Z,99.90
2018-12-08T02:53:21.551Z,99.90
2018-12-08T02:55:50.564Z,99.90
2018-12-08T02:58:19.547Z,99.90
2018-12-08T03:00:48.439Z,99.90
2018-12-08T03:05:45.844Z,99.90
2018-12-08T03:08:14.729Z,99.90
2018-12-08T03:13:12.365Z,99.90
2018-12-08T03:15:41.265Z,99.90
2018-12-08T03:18:10.224Z,99.90
2018-12-08T03:20:39.194Z,99.90
2018-12-08T03:23:08.161Z,99.90
2018-12-08T03:28:05.686Z,99.90
2018-12-08T03:30:34.637Z,99.90
2018-12-08T03:33:03.546Z,99.90
2018-12-08T03:35:32.468Z,99.90
2018-12-08T03:38:01.525Z,99.90
2018-12-08T03:40:30.433Z,99.90
2018-12-08T03:42:59.348Z,99.90
2018-12-08T03:45:28.218Z,99.90
2018-12-08T03:47:57.152Z,99.90
2018-12-08T03:50:26.154Z,99.90
2018-12-08T03:52:55.102Z,99.90
2018-12-08T03:55:24.022Z,99.90
2018-12-08T04:00:21.490Z,99.90
2018-12-08T04:05:19.007Z,99.90
2018-12-08T04:07:47.940Z,99.90
2018-12-08T04:10:16.861Z,99.90
2018-12-08T04:12:45.893Z,99.90
2018-12-08T04:15:14.951Z,99.90
2018-12-08T04:17:43.858Z,99.90
2018-12-08T04:20:12.758Z,99.90
2018-12-08T04:22:41.736Z,99.90
2018-12-08T04:25:12.759Z,99.90
2018-12-08T04:30:10.222Z,99.90
2018-12-08T04:32:39.153Z,99.90
2018-12-08T04:35:08.221Z,99.90
2018-12-08T04:40:05.870Z,99.90
2018-12-08T04:42:35.271Z,99.90
2018-12-08T04:45:04.461Z,99.90
2018-12-08T04:47:35.323Z,99.90
2018-12-08T04:50:04.758Z,99.90
2018-12-08T04:52:33.660Z,99.90
2018-12-08T04:57:31.230Z,99.90
2018-12-08T05:00:00.136Z,99.90
2018-12-08T05:02:29.115Z,99.90
2018-12-08T05:07:26.695Z,99.90
2018-12-08T05:12:24.146Z,99.90
2018-12-08T05:14:53.063Z,99.90
2018-12-08T05:17:21.948Z,99.90
2018-12-08T05:24:47.924Z,99.90
2018-12-08T05:27:16.877Z,99.90
2018-12-08T05:32:14.378Z,99.90
2018-12-08T05:37:13.060Z,99.90
2018-12-08T05:39:42.179Z,99.90
2018-12-08T05:44:39.759Z,99.90
2018-12-08T05:47:08.743Z,99.90
2018-12-08T05:49:37.699Z,99.90
2018-12-08T05:54:35.203Z,99.90
2018-12-08T05:57:04.142Z,99.90
2018-12-08T05:59:33.994Z,99.90
2018-12-08T06:02:03.033Z,99.90
2018-12-08T06:07:00.570Z,99.90
2018-12-08T06:09:29.677Z,99.90
2018-12-08T06:11:58.757Z,99.90
2018-12-08T06:14:28.996Z,99.90
2018-12-08T06:16:58.138Z,99.90
2018-12-08T06:19:27.120Z,99.90
2018-12-08T06:21:56.480Z,99.90
2018-12-08T06:24:25.422Z,99.90
2018-12-08T06:26:59.805Z,99.90
2018-12-08T06:29:29.333Z,99.90
2018-12-08T06:39:23.968Z,99.90
2018-12-08T06:41:52.889Z,99.90
2018-12-08T06:44:21.860Z,99.90
2018-12-08T06:51:47.909Z,99.90
2018-12-08T06:54:16.816Z,99.90
2018-12-08T06:56:46.026Z,99.90
2018-12-08T07:04:12.351Z,99.90
2018-12-08T07:06:41.255Z,99.90
2018-12-08T07:09:25.861Z,99.90
2018-12-08T07:11:54.741Z,99.90
2018-12-08T07:14:23.804Z,99.90
2018-12-08T07:16:52.902Z,99.90
2018-12-08T07:21:50.561Z,99.90
2018-12-08T07:24:19.481Z,99.90
2018-12-08T07:26:48.461Z,99.90
2018-12-08T07:31:46.625Z,99.90
2018-12-08T07:34:15.950Z,99.90
2018-12-08T07:36:44.941Z,99.90
2018-12-08T07:39:14.931Z,99.90
2018-12-08T07:41:43.844Z,99.90
2018-12-08T07:46:41.591Z,99.90
2018-12-08T07:49:10.545Z,99.90
2018-12-08T07:51:39.473Z,99.90
2018-12-08T07:56:37.008Z,99.90
2018-12-08T07:59:05.995Z,99.90
2018-12-08T08:01:34.918Z,99.90
2018-12-08T08:09:00.952Z,99.90
2018-12-08T08:13:58.354Z,99.90
2018-12-08T08:16:27.282Z,99.90
2018-12-08T08:21:25.964Z,99.90
2018-12-08T08:23:54.871Z,99.90
2018-12-08T08:28:52.515Z,99.90
2018-12-08T08:33:49.950Z,99.90
2018-12-08T08:36:18.855Z,99.90
2018-12-08T08:46:15.351Z,99.90
2018-12-08T08:48:44.413Z,99.90
2018-12-08T08:51:13.392Z,99.90
2018-12-08T08:53:42.283Z,99.90
2018-12-08T08:56:11.281Z,99.90
2018-12-08T08:58:40.137Z,99.90
2018-12-08T09:01:09.167Z,99.90
2018-12-08T09:06:06.716Z,99.90
2018-12-08T09:08:35.682Z,99.90
2018-12-08T09:13:33.339Z,99.90
2018-12-08T09:23:29.962Z,99.90
2018-12-08T09:25:58.982Z,99.90
2018-12-08T09:28:45.790Z,99.90
2018-12-08T09:31:15.986Z,99.90
2018-12-08T09:33:44.923Z,99.90
2018-12-08T09:36:13.919Z,99.90
2018-12-08T09:41:11.897Z,99.90
2018-12-08T09:46:09.727Z,99.90
2018-12-08T09:48:38.660Z,99.90
2018-12-08T09:51:07.598Z,99.90
2018-12-08T09:53:36.714Z,99.90
2018-12-08T09:56:06.712Z,99.90
2018-12-08T09:58:35.636Z,99.90
2018-12-08T10:03:50.033Z,99.90
2018-12-08T10:06:19.103Z,99.90
2018-12-08T10:11:16.708Z,99.90
2018-12-08T10:13:45.693Z,99.90
2018-12-08T10:16:14.652Z,99.90
2018-12-08T10:23:40.650Z,99.90
2018-12-08T10:26:09.636Z,99.90
2018-12-08T10:28:41.370Z,99.90
2018-12-08T10:31:10.380Z,99.90
2018-12-08T10:33:39.363Z,99.90
2018-12-08T10:36:08.254Z,99.90
2018-12-08T10:38:37.173Z,99.90
2018-12-08T10:41:06.112Z,99.90
2018-12-08T10:43:35.109Z,99.90
2018-12-08T10:46:04.006Z,99.90
2018-12-08T10:48:32.979Z,99.90
2018-12-08T10:51:01.965Z,99.90
2018-12-08T10:53:32.907Z,99.90
2018-12-08T10:56:01.922Z,99.90
2018-12-08T10:58:30.909Z,99.90
2018-12-08T11:03:48.732Z,99.90
2018-12-08T11:06:17.733Z,99.90
2018-12-08T11:11:15.147Z,99.90
2018-12-08T11:13:44.057Z,99.90
2018-12-08T11:16:12.978Z,99.90
2018-12-08T11:18:42.073Z,99.90
2018-12-08T11:21:10.951Z,99.90
2018-12-08T11:23:39.906Z,99.90
2018-12-08T11:26:08.962Z,99.90
2018-12-08T11:28:37.874Z,99.90
2018-12-08T11:31:06.787Z,99.90
2018-12-08T11:33:35.710Z,99.90
2018-12-08T11:36:04.638Z,99.90
2018-12-08T11:38:33.590Z,99.90
2018-12-08T11:41:02.471Z,99.90
2018-12-08T11:43:31.495Z,99.90
2018-12-08T11:46:00.488Z,99.90
2018-12-08T11:48:29.362Z,99.90
2018-12-08T11:50:58.276Z,99.70
2018-12-08T11:53:27.162Z,99.90
2018-12-08T11:55:56.098Z,99.90
2018-12-08T11:58:25.223Z,99.70
2018-12-08T12:00:54.186Z,99.70
2018-12-08T12:03:23.122Z,99.00
2018-12-08T12:05:52.047Z,99.10
2018-12-08T12:08:21.171Z,99.00
2018-12-08T12:10:50.199Z,98.70
2018-12-08T12:13:19.154Z,98.60
2018-12-08T12:15:48.075Z,98.80
2018-12-08T12:18:16.965Z,99.00
2018-12-08T12:20:45.875Z,98.80
2018-12-08T12:23:14.874Z,98.90
2018-12-08T12:25:43.961Z,98.30
2018-12-08T12:28:12.896Z,98.20
2018-12-08T12:30:41.921Z,98.70
2018-12-08T12:33:10.850Z,99.40
2018-12-08T12:35:39.739Z,98.50
2018-12-08T12:38:08.633Z,98.70
2018-12-08T12:40:37.645Z,98.00
2018-12-08T12:43:06.569Z,98.80
2018-12-08T12:45:35.443Z,98.60
2018-12-08T12:48:04.443Z,98.50
2018-12-08T12:50:33.330Z,98.70
2018-12-08T12:53:02.219Z,98.50
2018-12-08T12:55:31.118Z,98.70
2018-12-08T12:58:00.171Z,98.70
2018-12-08T13:00:29.113Z,98.20
2018-12-08T13:02:58.125Z,98.20
2018-12-08T13:05:27.040Z,98.70
2018-12-08T13:07:55.957Z,98.70
2018-12-08T13:10:24.878Z,98.70
2018-12-08T13:12:53.761Z,98.30
2018-12-08T13:15:22.796Z,98.00
2018-12-08T13:17:51.777Z,98.00
2018-12-08T13:20:20.678Z,97.60
2018-12-08T13:22:49.559Z,98.20
2018-12-08T13:25:24.549Z,98.50
2018-12-08T13:27:53.464Z,98.80
2018-12-08T13:30:22.575Z,99.00
2018-12-08T13:32:52.550Z,97.90
2018-12-08T13:35:32.441Z,98.20
2018-12-08T13:38:01.404Z,97.80
2018-12-08T13:40:30.304Z,97.50
2018-12-08T13:42:59.271Z,97.80
2018-12-08T13:45:28.200Z,99.00
2018-12-08T13:47:57.135Z,98.10
2018-12-08T13:50:26.064Z,97.70
2018-12-08T13:52:55.014Z,98.50
2018-12-08T13:55:27.017Z,99.10
2018-12-08T13:57:55.932Z,99.00
2018-12-08T14:00:24.796Z,98.80
2018-12-08T14:02:53.683Z,99.10
2018-12-08T14:05:22.738Z,99.10
2018-12-08T14:07:51.664Z,98.90
2018-12-08T14:10:20.684Z,98.80
2018-12-08T14:12:49.597Z,98.90
2018-12-08T14:15:21.559Z,98.60
2018-12-08T14:17:50.463Z,98.90
2018-12-08T14:20:27.290Z,98.70
2018-12-08T14:22:56.231Z,99.00
2018-12-08T14:25:25.170Z,98.70
2018-12-08T14:27:54.140Z,98.70
2018-12-08T14:30:23.111Z,99.20
2018-12-08T14:32:52.055Z,99.50
2018-12-08T14:35:21.017Z,99.60
2018-12-08T14:37:50.001Z,99.20
2018-12-08T14:40:19.016Z,98.90
2018-12-08T14:42:47.994Z,98.80
2018-12-08T14:45:23.076Z,99.20
2018-12-08T14:47:59.387Z,99.10
2018-12-08T14:50:29.526Z,99.00
2018-12-08T14:52:58.421Z,99.30
2018-12-08T14:55:27.329Z,99.30
2018-12-08T14:57:56.267Z,99.20
2018-12-08T15:00:25.184Z,99.40
2018-12-08T15:02:54.276Z,99.10
2018-12-08T15:05:23.214Z,99.20
2018-12-08T15:07:52.280Z,99.70
2018-12-08T15:10:21.953Z,99.80
2018-12-08T15:12:51.158Z,99.90
2018-12-08T15:15:20.115Z,99.90
2018-12-08T15:17:49.074Z,99.90
2018-12-08T15:20:18.036Z,99.90
2018-12-08T15:22:46.963Z,99.90
2018-12-08T15:25:16.031Z,99.90
2018-12-08T15:27:45.272Z,99.90
2018-12-08T15:30:14.252Z,99.90
2018-12-08T15:32:45.952Z,99.90
2018-12-08T15:35:15.871Z,99.90
2018-12-08T15:37:44.991Z,99.90
2018-12-08T15:40:14.421Z,99.90
2018-12-08T15:42:43.587Z,99.90
2018-12-08T15:45:12.644Z,99.90
2018-12-08T15:47:41.671Z,99.90
2018-12-08T15:50:11.664Z,99.90
2018-12-08T15:52:40.688Z,99.90
2018-12-08T15:55:09.711Z,99.90
2018-12-08T15:57:39.090Z,99.90
2018-12-08T16:00:10.747Z,99.90
2018-12-08T16:02:39.864Z,99.90
2018-12-08T16:05:09.362Z,99.90
2018-12-08T16:07:38.426Z,99.90
2018-12-08T16:10:08.473Z,99.90
2018-12-08T16:12:37.539Z,99.90
2018-12-08T16:15:08.101Z,99.90
2018-12-08T16:17:37.086Z,99.90
2018-12-08T16:20:09.574Z,99.90
2018-12-08T16:22:39.046Z,99.90
2018-12-08T16:25:08.182Z,99.90
2018-12-08T16:27:37.241Z,99.90
2018-12-08T16:30:08.150Z,99.90
2018-12-08T16:32:37.171Z,99.90
2018-12-08T16:35:06.139Z,99.90
2018-12-08T16:37:35.279Z,99.90
2018-12-08T16:40:04.843Z,99.90
2018-12-08T16:42:34.187Z,99.90
2018-12-08T16:45:03.440Z,99.90
2018-12-08T16:47:32.407Z,99.90
2018-12-08T16:50:01.430Z,99.90
2018-12-08T16:54:59.269Z,99.90
2018-12-08T16:57:28.345Z,99.90
2018-12-08T16:59:57.373Z,99.90
2018-12-08T17:07:24.673Z,99.90
2018-12-08T17:09:53.680Z,99.90
2018-12-08T17:12:22.627Z,99.90
2018-12-08T17:14:52.221Z,99.90
2018-12-08T17:17:21.219Z,99.90
2018-12-08T17:19:50.262Z,99.90
2018-12-08T17:22:19.360Z,99.90
2018-12-08T17:24:48.326Z,99.90
2018-12-08T17:29:45.925Z,99.90
2018-12-08T17:32:14.894Z,99.90
2018-12-08T17:34:44.180Z,99.90
2018-12-08T17:37:13.163Z,99.90
2018-12-08T17:39:42.792Z,99.90
2018-12-08T17:42:11.787Z,99.90
2018-12-08T17:44:41.007Z,99.90
2018-12-08T17:47:09.987Z,99.90
2018-12-08T17:49:39.068Z,99.90
2018-12-08T17:54:36.891Z,99.90
2018-12-08T17:57:05.986Z,99.90
2018-12-08T17:59:34.977Z,99.90
2018-12-08T18:02:04.521Z,99.90
2018-12-08T18:04:33.439Z,99.90
2018-12-08T18:07:02.509Z,99.90
2018-12-08T18:09:31.402Z,99.90
2018-12-08T18:12:00.417Z,99.90
2018-12-08T18:14:29.556Z,99.90
2018-12-08T18:16:58.559Z,99.90
2018-12-08T18:19:27.561Z,99.90
2018-12-08T18:21:59.273Z,99.90
2018-12-08T18:35:55.093Z,99.90
2018-12-08T18:38:24.126Z,99.90
2018-12-08T18:40:53.221Z,99.90
2018-12-08T18:43:22.274Z,99.90
2018-12-08T18:45:51.240Z,99.90
2018-12-08T18:48:20.307Z,99.90
2018-12-08T18:50:49.426Z,99.90
2018-12-08T18:53:18.686Z,99.90
2018-12-08T18:55:47.711Z,99.90
2018-12-08T18:58:33.575Z,99.90
2018-12-08T19:01:02.546Z,99.90
2018-12-08T19:03:32.580Z,99.90
2018-12-08T19:06:01.609Z,99.90
2018-12-08T19:08:30.630Z,99.90
2018-12-08T19:10:59.708Z,99.90
2018-12-08T19:13:29.324Z,99.90
2018-12-08T19:15:59.538Z,99.90
2018-12-08T19:18:28.544Z,99.90
2018-12-08T19:20:57.536Z,99.90
2018-12-08T19:23:26.662Z,99.90
2018-12-08T19:25:55.653Z,99.90
2018-12-08T19:28:25.943Z,99.90
2018-12-08T19:30:55.002Z,99.90
2018-12-08T19:33:24.112Z,99.90
2018-12-08T19:40:50.714Z,99.90
2018-12-08T19:43:24.798Z,99.90
2018-12-08T19:48:22.657Z,99.90
2018-12-08T19:50:51.698Z,99.90
2018-12-08T19:53:20.746Z,99.90
2018-12-08T19:55:49.719Z,99.90
2018-12-08T20:00:47.318Z,99.90
2018-12-08T20:03:16.444Z,99.90
2018-12-08T20:05:45.423Z,99.90
2018-12-08T20:08:14.394Z,99.90
2018-12-08T20:10:43.409Z,99.90
2018-12-08T20:13:12.394Z,99.90
2018-12-08T20:15:41.330Z,99.90
2018-12-08T20:18:10.290Z,99.90
2018-12-08T20:20:39.239Z,99.90
2018-12-08T20:23:08.290Z,99.90
2018-12-08T20:25:37.234Z,99.90
2018-12-08T20:28:06.272Z,99.90
2018-12-08T20:30:35.297Z,99.90
2018-12-08T20:35:33.009Z,99.90
2018-12-08T20:38:01.993Z,99.90
2018-12-08T20:40:31.000Z,99.90
2018-12-08T20:45:28.643Z,99.90
2018-12-08T20:47:58.616Z,99.90
2018-12-08T20:52:56.130Z,99.90
2018-12-08T20:55:27.564Z,99.90
2018-12-08T20:57:56.576Z,99.90
2018-12-08T21:05:38.038Z,99.90
2018-12-08T21:08:08.154Z,99.90
2018-12-08T21:13:06.840Z,99.90
2018-12-08T21:15:35.852Z,99.90
2018-12-08T21:20:33.505Z,99.90
2018-12-08T21:23:02.478Z,99.90
2018-12-08T21:25:31.437Z,99.90
2018-12-08T21:28:01.632Z,99.90
2018-12-08T21:30:30.692Z,99.90
2018-12-08T21:32:59.722Z,99.90
2018-12-08T21:35:28.700Z,99.90
2018-12-08T21:37:57.690Z,99.90
2018-12-08T21:40:28.576Z,99.90
2018-12-08T21:42:57.595Z,99.90
2018-12-08T21:47:55.869Z,99.90
2018-12-08T21:50:24.794Z,99.90
2018-12-08T21:52:53.730Z,99.90
2018-12-08T21:55:22.717Z,99.90
2018-12-08T21:57:51.719Z,99.90
2018-12-08T22:00:20.963Z,99.90
2018-12-08T22:05:18.569Z,99.90
2018-12-08T22:07:47.499Z,99.90
2018-12-08T22:10:16.492Z,99.90
2018-12-08T22:12:45.461Z,99.90
2018-12-08T22:15:15.522Z,99.90
2018-12-08T22:17:45.240Z,99.90
2018-12-08T22:20:14.269Z,99.90
2018-12-08T22:22:43.393Z,99.90
2018-12-08T22:25:12.371Z,99.90
2018-12-08T22:27:41.372Z,99.90
2018-12-08T22:30:10.385Z,99.90
2018-12-08T22:35:08.087Z,99.90
2018-12-08T22:37:37.089Z,99.90
2018-12-08T22:40:07.091Z,99.90
2018-12-08T22:45:05.408Z,99.90
2018-12-08T22:47:34.387Z,99.90
2018-12-08T22:50:03.538Z,99.90
2018-12-08T22:52:32.508Z,99.90
2018-12-08T22:55:01.448Z,99.90
2018-12-08T23:00:00.205Z,99.90
2018-12-08T23:02:29.200Z,99.90
2018-12-08T23:04:58.151Z,99.90
2018-12-08T23:09:55.837Z,99.90
2018-12-08T23:12:24.857Z,99.90
2018-12-08T23:17:22.414Z,99.90
2018-12-08T23:19:51.349Z,99.90
2018-12-08T23:22:20.314Z,99.90
2018-12-08T23:24:49.290Z,99.90
2018-12-08T23:29:46.838Z,99.90
2018-12-08T23:32:15.718Z,99.90
2018-12-08T23:34:44.710Z,99.90
2018-12-08T23:37:13.651Z,99.90
2018-12-08T23:39:42.715Z,99.90
2018-12-08T23:42:11.639Z,99.90
2018-12-08T23:44:40.592Z,99.90
2018-12-08T23:49:38.385Z,99.90
2018-12-08T23:52:07.406Z,99.90
2018-12-08T23:54:36.454Z,99.90
2018-12-08T23:57:05.541Z,99.90
2018-12-08T23:59:34.675Z,99.90
